Time;durP1;ratioP1;P1;durP2;ratioP2;P2;SDS_P1;SDS_P2;PMS_P1;PMS_P2;Temp;Humidity;BMP_temperature;BMP_pressure;BME280_temperature;BME280_humidity;BME280_pressure;Samples;Min_cycle;Max_cycle;Signal;HPM_P1;HPM_P2
2022/12/09 00:01:52;;;;;;;37.57;21.80;;;2.30;99.90;;;;;;5056713;28;21008;-52
2022/12/09 00:04:19;;;;;;;34.23;21.23;;;2.20;99.90;;;;;;5058261;28;20451;-49
2022/12/09 00:06:45;;;;;;;39.53;22.73;;;2.20;99.90;;;;;;5058052;28;20522;-51
2022/12/09 00:09:15;;;;;;;41.00;22.10;;;2.10;99.90;;;;;;5058488;28;20445;-51
2022/12/09 00:11:41;;;;;;;42.77;23.03;;;2.20;99.90;;;;;;5058186;28;20534;-52
2022/12/09 00:14:09;;;;;;;40.47;22.93;;;2.20;99.90;;;;;;5058170;28;20440;-50
2022/12/09 00:16:36;;;;;;;44.23;22.90;;;2.20;99.90;;;;;;5057703;28;20514;-54
2022/12/09 00:19:03;;;;;;;51.20;22.67;;;2.10;99.90;;;;;;5058133;28;21065;-49
2022/12/09 00:21:31;;;;;;;46.90;25.20;;;2.10;99.90;;;;;;5058389;28;20443;-54
2022/12/09 00:24:00;;;;;;;46.13;24.20;;;2.10;99.90;;;;;;5058381;28;20448;-53
2022/12/09 00:26:28;;;;;;;40.97;22.33;;;2.00;99.90;;;;;;5057644;28;21043;-52
2022/12/09 00:28:56;;;;;;;53.90;24.03;;;2.00;99.90;;;;;;5058066;28;20460;-48
2022/12/09 00:31:24;;;;;;;52.83;26.07;;;2.00;99.90;;;;;;5057906;28;20448;-48
2022/12/09 00:33:52;;;;;;;47.50;24.93;;;2.00;99.90;;;;;;5057930;28;20935;-49
2022/12/09 00:36:20;;;;;;;45.47;24.90;;;2.00;99.90;;;;;;5057493;28;20484;-53
2022/12/09 00:38:47;;;;;;;57.37;26.03;;;2.10;99.90;;;;;;5049524;28;20441;-54
2022/12/09 00:41:15;;;;;;;50.07;23.57;;;2.00;99.90;;;;;;5049581;28;20493;-51
2022/12/09 00:43:43;;;;;;;49.33;24.90;;;2.10;99.90;;;;;;5057729;28;20447;-51
2022/12/09 00:46:11;;;;;;;49.13;24.03;;;2.10;99.90;;;;;;5057341;28;20970;-52
2022/12/09 00:48:38;;;;;;;50.30;26.17;;;2.10;99.90;;;;;;5057675;28;20519;-51
2022/12/09 00:51:06;;;;;;;53.70;24.77;;;2.10;99.90;;;;;;5049497;28;20847;-54
2022/12/09 00:53:34;;;;;;;50.43;25.70;;;2.10;99.90;;;;;;5049606;28;20494;-52
2022/12/09 00:56:01;;;;;;;51.43;24.30;;;2.10;99.90;;;;;;5049199;28;20956;-52
2022/12/09 00:58:27;;;;;;;48.70;26.37;;;2.10;99.90;;;;;;5041856;28;20869;-53
2022/12/09 01:00:55;;;;;;;56.40;26.77;;;2.10;99.90;;;;;;5037962;28;20449;-53
2022/12/09 01:03:22;;;;;;;52.40;26.73;;;2.10;99.90;;;;;;5037599;28;21005;-49
2022/12/09 01:05:49;;;;;;;53.73;25.30;;;2.10;99.90;;;;;;5037632;28;20526;-49
2022/12/09 01:08:17;;;;;;;48.90;24.63;;;2.10;99.90;;;;;;5037520;28;20450;-50
2022/12/09 01:10:45;;;;;;;54.37;24.33;;;2.10;99.90;;;;;;5037681;28;20460;-49
2022/12/09 01:13:13;;;;;;;46.40;24.73;;;2.00;99.90;;;;;;5047644;28;20872;-51
2022/12/09 01:15:39;;;;;;;48.00;24.57;;;2.00;99.90;;;;;;5054194;28;21004;-53
2022/12/09 01:18:08;;;;;;;54.80;26.77;;;2.10;99.90;;;;;;5054290;28;20452;-47
2022/12/09 01:20:34;;;;;;;52.00;25.33;;;2.10;99.90;;;;;;5054473;28;20440;-53
2022/12/09 01:23:02;;;;;;;56.50;26.77;;;2.10;99.90;;;;;;5054378;28;20452;-51
2022/12/09 01:25:28;;;;;;;55.93;26.53;;;2.00;99.90;;;;;;5054216;28;20539;-48
2022/12/09 01:27:55;;;;;;;54.70;26.93;;;2.00;99.90;;;;;;5054179;28;20452;-46
2022/12/09 01:30:21;;;;;;;54.27;26.97;;;2.00;99.90;;;;;;5054362;28;20456;-53
2022/12/09 01:32:48;;;;;;;54.47;26.33;;;2.00;99.90;;;;;;5054044;28;20501;-46
2022/12/09 01:35:16;;;;;;;58.97;27.13;;;2.00;99.90;;;;;;5054189;28;20513;-56
2022/12/09 01:37:43;;;;;;;55.83;27.07;;;2.10;99.90;;;;;;5053765;28;20541;-48
2022/12/09 01:40:15;;;;;;;58.60;27.50;;;2.10;99.90;;;;;;5053985;28;20444;-51
2022/12/09 01:42:42;;;;;;;51.73;26.60;;;2.00;99.90;;;;;;5053851;28;20998;-52
2022/12/09 01:45:40;;;;;;;59.13;27.50;;;2.00;99.90;;;;;;5053921;28;20448;-52
2022/12/09 01:48:12;;;;;;;52.77;26.40;;;2.00;99.90;;;;;;5053515;28;20444;-49
2022/12/09 01:50:46;;;;;;;56.70;26.83;;;2.00;99.90;;;;;;5054053;28;20456;-49
2022/12/09 01:53:15;;;;;;;51.20;25.73;;;2.10;99.90;;;;;;5053863;28;20448;-46
2022/12/09 01:55:42;;;;;;;59.53;28.93;;;2.10;99.90;;;;;;5053864;28;20480;-46
2022/12/09 01:58:09;;;;;;;52.97;26.60;;;2.00;99.90;;;;;;5053507;28;21002;-46
2022/12/09 02:00:36;;;;;;;56.67;26.40;;;2.10;99.90;;;;;;5054033;28;20456;-54
2022/12/09 02:03:03;;;;;;;58.73;25.73;;;2.10;99.90;;;;;;5053737;28;20521;-51
2022/12/09 02:05:30;;;;;;;52.37;26.50;;;2.10;99.90;;;;;;5053579;28;20452;-52
2022/12/09 02:07:58;;;;;;;55.33;27.70;;;2.10;99.90;;;;;;5053070;28;20810;-54
2022/12/09 02:10:27;;;;;;;56.80;26.43;;;2.10;99.90;;;;;;5053642;28;20456;-51
2022/12/09 02:13:02;;;;;;;54.73;26.57;;;2.10;99.90;;;;;;5053321;28;20440;-51
2022/12/09 02:15:37;;;;;;;49.60;25.17;;;2.10;99.90;;;;;;5053081;28;20448;-49
2022/12/09 02:18:10;;;;;;;55.67;27.30;;;2.00;99.90;;;;;;5053330;28;20488;-48
2022/12/09 02:20:41;;;;;;;56.63;26.17;;;2.00;99.90;;;;;;5053353;28;20505;-54
2022/12/09 02:23:16;;;;;;;57.90;27.97;;;2.00;99.90;;;;;;5053170;28;20566;-53
2022/12/09 02:25:47;;;;;;;53.47;27.17;;;2.00;99.90;;;;;;5052975;28;20464;-55
2022/12/09 02:28:39;;;;;;;52.43;25.90;;;2.10;99.90;;;;;;5053241;28;20452;-49
2022/12/09 02:31:21;;;;;;;59.17;27.63;;;2.00;99.90;;;;;;5053167;28;20448;-53
2022/12/09 02:34:11;;;;;;;59.57;27.13;;;2.00;99.90;;;;;;5052903;28;20448;-51
2022/12/09 02:36:46;;;;;;;59.30;27.77;;;2.00;99.90;;;;;;5052770;28;20494;-51
2022/12/09 02:39:13;;;;;;;54.93;26.47;;;2.00;99.90;;;;;;5052992;28;20455;-51
2022/12/09 02:41:43;;;;;;;53.77;27.30;;;2.10;99.90;;;;;;5052968;28;20448;-52
2022/12/09 02:44:15;;;;;;;52.80;25.50;;;2.00;99.90;;;;;;5052504;28;20452;-49
2022/12/09 02:46:43;;;;;;;51.20;26.40;;;2.00;99.90;;;;;;5052184;28;20986;-51
2022/12/09 02:49:13;;;;;;;53.80;26.97;;;2.00;99.90;;;;;;5052889;28;20445;-53
2022/12/09 02:51:41;;;;;;;55.30;26.37;;;2.00;99.90;;;;;;5052703;28;20855;-53
2022/12/09 02:54:14;;;;;;;54.03;26.93;;;2.10;99.90;;;;;;5052717;28;20826;-52
2022/12/09 02:56:45;;;;;;;53.23;26.00;;;2.10;99.90;;;;;;5052393;28;20900;-49
2022/12/09 02:59:12;;;;;;;56.50;25.40;;;2.10;99.90;;;;;;5052470;28;20456;-54
2022/12/09 03:01:45;;;;;;;54.47;25.93;;;2.10;99.90;;;;;;5052656;28;20505;-52
2022/12/09 03:04:18;;;;;;;48.63;26.43;;;2.00;99.90;;;;;;5052568;28;20955;-53
2022/12/09 03:06:49;;;;;;;52.97;24.43;;;2.10;99.90;;;;;;5051965;28;20467;-49
2022/12/09 03:09:20;;;;;;;52.70;26.13;;;2.00;99.90;;;;;;5052507;28;20526;-47
2022/12/09 03:11:48;;;;;;;45.83;23.20;;;2.10;99.90;;;;;;5052032;28;20460;-50
2022/12/09 03:14:20;;;;;;;50.83;25.37;;;2.10;99.90;;;;;;5052116;28;20931;-51
2022/12/09 03:16:51;;;;;;;48.47;23.63;;;2.20;99.90;;;;;;5051759;28;20994;-51
2022/12/09 03:19:23;;;;;;;49.10;23.27;;;2.20;99.90;;;;;;5052212;28;20451;-53
2022/12/09 03:21:54;;;;;;;50.17;24.90;;;2.20;99.90;;;;;;5052170;28;20505;-49
2022/12/09 03:24:24;;;;;;;45.33;23.33;;;2.20;99.90;;;;;;5052263;28;20893;-53
2022/12/09 03:26:52;;;;;;;46.30;24.33;;;2.30;99.90;;;;;;5051950;28;20467;-51
2022/12/09 03:29:23;;;;;;;47.90;24.10;;;2.40;99.90;;;;;;5052143;28;20458;-53
2022/12/09 03:31:53;;;;;;;43.33;24.03;;;2.50;99.90;;;;;;5051956;28;20209;-52
2022/12/09 03:34:25;;;;;;;45.60;23.27;;;2.40;99.90;;;;;;5052119;28;20941;-55
2022/12/09 03:36:53;;;;;;;45.40;23.97;;;2.30;99.90;;;;;;5050778;28;20912;-54
2022/12/09 03:39:25;;;;;;;46.13;22.80;;;2.30;99.90;;;;;;5052136;28;20560;-52
2022/12/09 03:41:55;;;;;;;44.63;23.07;;;2.40;99.90;;;;;;5051972;28;20214;-51
2022/12/09 03:44:29;;;;;;;41.37;22.23;;;2.40;99.90;;;;;;5051846;28;20449;-53
2022/12/09 03:46:56;;;;;;;40.43;22.17;;;2.40;99.90;;;;;;5051433;28;20221;-54
2022/12/09 03:49:24;;;;;;;43.37;21.73;;;2.30;99.90;;;;;;5051772;28;20252;-52
2022/12/09 03:51:56;;;;;;;42.93;21.47;;;2.30;99.90;;;;;;5051871;28;20570;-55
2022/12/09 03:54:26;;;;;;;38.33;21.47;;;2.10;99.90;;;;;;5051978;28;20449;-49
2022/12/09 03:56:56;;;;;;;40.10;20.87;;;2.20;99.90;;;;;;5051210;28;20901;-53
2022/12/09 03:59:25;;;;;;;38.40;21.60;;;2.10;99.90;;;;;;5052065;28;20509;-55
2022/12/09 04:01:52;;;;;;;47.07;22.27;;;2.10;99.90;;;;;;5051407;28;20510;-51
2022/12/09 04:04:19;;;;;;;39.57;21.57;;;2.10;99.90;;;;;;5051844;28;20444;-50
2022/12/09 04:06:47;;;;;;;46.17;23.00;;;2.10;99.90;;;;;;5051050;28;20472;-54
2022/12/09 04:09:15;;;;;;;42.53;22.43;;;2.10;99.90;;;;;;5051723;28;20456;-53
2022/12/09 04:11:41;;;;;;;42.50;23.10;;;2.20;99.90;;;;;;5051418;28;20840;-51
2022/12/09 04:14:08;;;;;;;41.83;22.83;;;2.30;99.90;;;;;;5051327;28;20451;-54
2022/12/09 04:16:35;;;;;;;45.77;23.37;;;2.30;99.90;;;;;;5051155;28;20464;-54
2022/12/09 04:19:02;;;;;;;40.40;21.37;;;2.30;99.90;;;;;;5051706;28;20448;-53
2022/12/09 04:21:28;;;;;;;43.23;21.30;;;2.40;99.90;;;;;;5051319;28;20460;-51
2022/12/09 04:23:56;;;;;;;39.17;21.10;;;2.50;99.90;;;;;;5051453;28;20498;-50
2022/12/09 04:26:23;;;;;;;38.43;21.40;;;2.50;99.90;;;;;;5051349;28;20464;-50
2022/12/09 04:28:50;;;;;;;42.33;22.00;;;2.40;99.90;;;;;;5051528;28;20205;-52
2022/12/09 04:31:18;;;;;;;41.20;20.53;;;2.30;99.90;;;;;;5051824;28;20452;-52
2022/12/09 04:33:45;;;;;;;40.63;20.67;;;2.40;99.90;;;;;;5051542;28;20872;-50
2022/12/09 04:36:14;;;;;;;36.47;21.03;;;2.40;99.90;;;;;;5051374;28;20468;-52
2022/12/09 04:38:41;;;;;;;37.17;19.53;;;2.20;99.90;;;;;;5051020;28;20487;-51
2022/12/09 04:41:11;;;;;;;36.70;18.67;;;2.10;99.90;;;;;;5051362;28;20452;-52
2022/12/09 04:43:38;;;;;;;39.30;19.73;;;2.10;99.90;;;;;;5051457;28;20445;-55
2022/12/09 04:46:07;;;;;;;44.40;21.70;;;2.20;99.90;;;;;;5051359;28;20468;-51
2022/12/09 04:48:34;;;;;;;38.07;21.30;;;2.10;99.90;;;;;;5053449;28;20456;-52
2022/12/09 04:51:01;;;;;;;39.97;20.13;;;2.10;99.90;;;;;;5055175;28;20451;-50
2022/12/09 04:53:28;;;;;;;40.00;21.03;;;2.10;99.90;;;;;;5055021;28;20452;-50
2022/12/09 04:55:59;;;;;;;38.70;19.53;;;2.20;99.90;;;;;;5054599;28;20467;-53
2022/12/09 04:58:27;;;;;;;37.60;19.63;;;2.30;99.90;;;;;;5055158;28;20490;-51
2022/12/09 05:00:54;;;;;;;37.93;20.50;;;2.30;99.90;;;;;;5055084;28;20205;-49
2022/12/09 05:03:21;;;;;;;33.53;18.63;;;2.40;99.90;;;;;;5054902;28;20444;-51
2022/12/09 05:05:47;;;;;;;33.07;18.50;;;2.40;99.90;;;;;;5054277;28;20745;-52
2022/12/09 05:08:14;;;;;;;36.67;19.57;;;2.30;99.90;;;;;;5054357;28;20478;-53
2022/12/09 05:10:41;;;;;;;31.63;18.43;;;2.30;99.90;;;;;;5054786;28;20472;-50
2022/12/09 05:13:08;;;;;;;36.23;19.73;;;2.30;99.90;;;;;;5054481;28;20479;-49
2022/12/09 05:15:37;;;;;;;40.47;19.33;;;2.20;99.90;;;;;;5054671;28;20509;-54
2022/12/09 05:18:04;;;;;;;36.27;18.87;;;2.20;99.90;;;;;;5054165;28;20480;-49
2022/12/09 05:20:31;;;;;;;34.37;20.80;;;2.20;99.90;;;;;;5054394;28;20499;-50
2022/12/09 05:22:57;;;;;;;34.70;19.27;;;2.10;99.90;;;;;;5054623;28;20455;-54
2022/12/09 05:25:24;;;;;;;38.57;19.47;;;2.10;99.90;;;;;;5054059;28;20501;-50
2022/12/09 05:27:51;;;;;;;37.40;18.80;;;2.10;99.90;;;;;;5054228;28;20444;-53
2022/12/09 05:30:17;;;;;;;34.80;19.93;;;2.20;99.90;;;;;;5054293;28;20460;-52
2022/12/09 05:32:47;;;;;;;34.03;19.57;;;2.20;99.90;;;;;;5053181;28;21246;-49
2022/12/09 05:35:13;;;;;;;33.30;18.33;;;2.10;99.90;;;;;;5053201;28;20452;-55
2022/12/09 05:37:40;;;;;;;33.63;19.10;;;2.20;99.90;;;;;;5052112;28;20488;-50
2022/12/09 05:40:08;;;;;;;33.07;17.93;;;2.10;99.90;;;;;;5053688;28;20844;-52
2022/12/09 05:42:36;;;;;;;35.83;19.33;;;2.10;99.90;;;;;;5053872;28;20521;-49
2022/12/09 05:45:03;;;;;;;32.60;18.43;;;2.00;99.90;;;;;;5053387;28;20444;-52
2022/12/09 05:47:29;;;;;;;28.67;17.60;;;2.10;99.90;;;;;;5053611;28;20491;-46
2022/12/09 05:49:57;;;;;;;33.10;18.87;;;2.10;99.90;;;;;;5053256;28;20451;-53
2022/12/09 05:52:24;;;;;;;30.97;16.37;;;2.00;99.90;;;;;;5053676;28;20501;-50
2022/12/09 05:54:51;;;;;;;37.47;19.80;;;1.90;99.90;;;;;;5054050;28;20456;-52
2022/12/09 05:57:17;;;;;;;33.00;18.80;;;1.80;99.90;;;;;;5052802;28;20472;-52
2022/12/09 05:59:44;;;;;;;41.03;21.43;;;1.80;99.90;;;;;;5052913;28;20498;-53
2022/12/09 06:02:10;;;;;;;42.13;21.70;;;1.80;99.90;;;;;;5053037;28;20452;-52
2022/12/09 06:04:37;;;;;;;32.77;19.03;;;1.80;99.90;;;;;;5053372;28;20481;-51
2022/12/09 06:07:05;;;;;;;34.17;19.50;;;1.70;99.90;;;;;;5052758;28;20847;-51
2022/12/09 06:09:32;;;;;;;38.60;19.40;;;1.70;99.90;;;;;;5053145;28;20887;-52
2022/12/09 06:11:59;;;;;;;37.73;19.43;;;1.50;99.90;;;;;;5052563;28;20440;-58
2022/12/09 06:14:26;;;;;;;40.63;20.77;;;1.50;99.90;;;;;;5053110;28;20444;-51
2022/12/09 06:16:52;;;;;;;32.87;18.87;;;1.50;99.90;;;;;;5052737;28;20468;-55
2022/12/09 06:19:19;;;;;;;34.97;18.63;;;1.40;99.90;;;;;;5052227;28;20533;-55
2022/12/09 06:21:45;;;;;;;32.80;18.73;;;1.50;99.90;;;;;;5053109;28;20501;-53
2022/12/09 06:24:13;;;;;;;34.60;17.53;;;1.50;99.90;;;;;;5052703;28;20475;-54
2022/12/09 06:26:40;;;;;;;33.83;18.23;;;1.30;99.90;;;;;;5052959;28;20479;-54
2022/12/09 06:29:07;;;;;;;34.13;18.40;;;1.30;99.90;;;;;;5052515;28;20447;-54
2022/12/09 06:31:33;;;;;;;36.23;17.57;;;1.20;99.90;;;;;;5052776;28;20452;-59
2022/12/09 06:34:00;;;;;;;35.67;17.70;;;1.30;99.90;;;;;;5052479;28;20451;-57
2022/12/09 06:36:28;;;;;;;37.13;19.37;;;1.40;99.90;;;;;;5052304;28;20475;-62
2022/12/09 06:38:56;;;;;;;34.97;17.70;;;1.60;99.90;;;;;;5052437;28;20562;-60
2022/12/09 06:41:24;;;;;;;31.80;18.73;;;1.70;99.90;;;;;;5052450;28;20476;-58
2022/12/09 06:43:51;;;;;;;34.80;17.97;;;1.90;99.90;;;;;;5052400;28;20455;-61
2022/12/09 06:46:19;;;;;;;38.87;18.03;;;1.90;99.90;;;;;;5051801;28;20478;-58
2022/12/09 06:48:46;;;;;;;33.37;18.53;;;2.10;99.90;;;;;;5052108;28;20440;-60
2022/12/09 06:51:12;;;;;;;39.53;18.40;;;2.20;99.90;;;;;;5051823;28;20444;-59
2022/12/09 06:53:39;;;;;;;31.43;17.53;;;2.30;99.90;;;;;;5052736;28;20444;-59
2022/12/09 06:56:08;;;;;;;35.07;20.00;;;2.40;99.90;;;;;;5051925;28;20468;-59
2022/12/09 06:58:36;;;;;;;33.10;18.93;;;2.50;99.90;;;;;;5052461;28;20480;-59
2022/12/09 07:01:05;;;;;;;39.53;19.40;;;2.70;99.90;;;;;;5051720;28;20460;-56
2022/12/09 07:03:31;;;;;;;37.50;20.30;;;2.70;99.90;;;;;;5052174;28;20460;-55
2022/12/09 07:05:58;;;;;;;35.70;19.80;;;2.70;99.90;;;;;;5051621;28;20487;-54
2022/12/09 07:08:25;;;;;;;32.80;19.00;;;2.70;99.90;;;;;;5051902;28;20436;-52
2022/12/09 07:10:51;;;;;;;32.83;18.07;;;2.50;99.90;;;;;;5046097;28;20452;-54
2022/12/09 07:13:18;;;;;;;33.47;18.87;;;2.40;99.90;;;;;;5053085;28;20444;-55
2022/12/09 07:15:46;;;;;;;39.50;19.57;;;2.30;99.90;;;;;;5051332;28;21043;-54
2022/12/09 07:18:13;;;;;;;28.53;17.70;;;2.20;99.90;;;;;;5050807;28;20514;-50
2022/12/09 07:20:39;;;;;;;34.83;19.77;;;2.00;99.90;;;;;;5051144;28;20448;-55
2022/12/09 07:23:06;;;;;;;34.03;18.63;;;1.90;99.90;;;;;;5050406;28;20452;-56
2022/12/09 07:25:33;;;;;;;32.27;18.33;;;1.90;99.90;;;;;;5051321;28;20455;-48
2022/12/09 07:28:00;;;;;;;30.07;17.03;;;1.90;99.90;;;;;;5051163;28;21005;-58
2022/12/09 07:30:26;;;;;;;31.57;18.33;;;1.90;99.90;;;;;;5050660;28;21114;-58
2022/12/09 07:32:54;;;;;;;32.90;16.87;;;1.90;99.90;;;;;;5051362;28;20505;-55
2022/12/09 07:35:21;;;;;;;26.57;15.13;;;1.90;99.90;;;;;;5050406;28;20506;-56
2022/12/09 07:37:48;;;;;;;28.07;15.27;;;1.80;99.90;;;;;;5050837;28;20456;-56
2022/12/09 07:40:14;;;;;;;32.73;15.83;;;1.70;99.90;;;;;;5050307;28;20444;-57
2022/12/09 07:42:41;;;;;;;26.03;14.53;;;1.70;99.90;;;;;;5049826;28;20494;-55
2022/12/09 07:45:09;;;;;;;33.93;17.67;;;1.60;99.90;;;;;;5051330;28;20444;-56
2022/12/09 07:47:36;;;;;;;30.43;16.27;;;1.60;99.90;;;;;;5050431;28;20475;-56
2022/12/09 07:50:05;;;;;;;28.37;16.13;;;1.60;99.90;;;;;;5051336;28;20451;-55
2022/12/09 07:52:32;;;;;;;31.80;17.20;;;1.60;99.90;;;;;;5050391;28;20456;-52
2022/12/09 07:55:00;;;;;;;29.90;18.07;;;1.60;99.90;;;;;;5051007;28;20975;-60
2022/12/09 07:57:27;;;;;;;31.90;16.87;;;1.60;99.90;;;;;;5049310;28;21116;-55
2022/12/09 07:59:55;;;;;;;30.23;17.23;;;1.60;99.90;;;;;;5042446;28;20538;-53
2022/12/09 08:02:22;;;;;;;27.77;16.00;;;1.70;99.90;;;;;;5050865;28;20456;-55
2022/12/09 08:04:49;;;;;;;28.70;17.00;;;1.70;99.90;;;;;;5050526;28;20459;-57
2022/12/09 08:07:17;;;;;;;33.53;18.90;;;1.60;99.90;;;;;;5050395;28;21005;-54
2022/12/09 08:09:43;;;;;;;33.67;18.43;;;1.60;99.90;;;;;;5050403;28;20440;-57
2022/12/09 08:12:11;;;;;;;33.53;18.67;;;1.60;99.90;;;;;;5050431;28;20443;-56
2022/12/09 08:14:38;;;;;;;32.90;18.40;;;1.70;99.90;;;;;;5040545;28;20852;-55
2022/12/09 08:17:04;;;;;;;31.77;17.93;;;1.80;99.90;;;;;;5031033;28;20469;-55
2022/12/09 08:19:31;;;;;;;33.63;18.43;;;1.80;99.90;;;;;;5033433;28;20492;-57
2022/12/09 08:21:58;;;;;;;33.67;18.73;;;1.90;99.90;;;;;;5042649;28;21037;-59
2022/12/09 08:24:26;;;;;;;32.83;18.60;;;1.90;99.90;;;;;;5054671;28;20432;-61
2022/12/09 08:26:52;;;;;;;38.83;19.20;;;2.00;99.90;;;;;;5054117;28;20998;-59
2022/12/09 08:29:19;;;;;;;32.20;19.97;;;2.00;99.90;;;;;;5054495;28;20478;-57
2022/12/09 08:31:46;;;;;;;33.90;18.80;;;2.10;99.90;;;;;;5054175;28;20535;-56
2022/12/09 08:34:13;;;;;;;35.50;19.60;;;2.10;99.90;;;;;;5054600;28;20207;-58
2022/12/09 08:36:40;;;;;;;30.27;17.40;;;2.10;99.90;;;;;;5053742;28;20989;-58
2022/12/09 08:39:07;;;;;;;32.93;19.77;;;2.20;99.90;;;;;;5054478;28;20238;-57
2022/12/09 08:41:36;;;;;;;31.53;18.17;;;2.20;99.90;;;;;;5053873;28;20869;-58
2022/12/09 08:44:04;;;;;;;32.57;18.63;;;2.10;99.90;;;;;;5053684;28;20817;-58
2022/12/09 08:46:32;;;;;;;32.13;17.43;;;2.00;99.90;;;;;;5056377;28;20467;-57
2022/12/09 08:49:00;;;;;;;34.53;18.80;;;1.90;99.90;;;;;;5054727;28;20444;-59
2022/12/09 08:51:27;;;;;;;31.43;17.60;;;1.90;99.90;;;;;;5053117;28;21013;-59
2022/12/09 08:53:54;;;;;;;34.17;18.93;;;2.00;99.90;;;;;;5053954;28;20536;-58
2022/12/09 08:56:20;;;;;;;31.87;17.27;;;2.10;99.90;;;;;;5052808;28;20488;-56
2022/12/09 08:58:48;;;;;;;31.17;17.87;;;2.10;99.90;;;;;;5045575;28;20480;-55
2022/12/09 09:01:16;;;;;;;30.13;15.50;;;2.10;99.90;;;;;;5053120;28;20444;-54
2022/12/09 09:03:43;;;;;;;25.30;14.80;;;2.10;99.90;;;;;;5055356;28;20448;-55
2022/12/09 09:06:11;;;;;;;33.57;15.53;;;1.90;99.90;;;;;;5051002;28;20483;-55
2022/12/09 09:08:38;;;;;;;28.23;14.00;;;2.00;99.90;;;;;;5053654;28;20440;-54
2022/12/09 09:11:09;;;;;;;30.03;15.67;;;2.00;99.90;;;;;;5053911;28;21017;-55
2022/12/09 09:13:37;;;;;;;32.53;16.87;;;2.00;99.90;;;;;;5053867;28;20523;-53
2022/12/09 09:16:08;;;;;;;29.33;16.67;;;2.00;99.90;;;;;;5053226;28;20475;-59
2022/12/09 09:18:34;;;;;;;33.73;17.53;;;2.10;99.90;;;;;;5053583;28;20495;-58
2022/12/09 09:21:01;;;;;;;29.77;17.13;;;2.20;99.90;;;;;;5053965;28;20449;-58
2022/12/09 09:23:28;;;;;;;27.47;17.00;;;2.20;99.90;;;;;;5051833;28;20475;-58
2022/12/09 09:25:54;;;;;;;24.27;15.67;;;2.30;99.90;;;;;;5049202;28;20554;-57
2022/12/09 09:28:21;;;;;;;29.77;15.23;;;2.30;99.90;;;;;;5053067;28;20448;-55
2022/12/09 09:30:49;;;;;;;32.73;17.77;;;2.30;99.90;;;;;;5053759;28;20498;-58
2022/12/09 09:33:17;;;;;;;30.70;15.37;;;2.40;99.90;;;;;;5052081;28;20460;-56
2022/12/09 09:35:43;;;;;;;28.87;15.80;;;2.50;99.90;;;;;;5053997;28;20459;-56
2022/12/09 09:38:11;;;;;;;25.90;15.47;;;2.50;99.90;;;;;;5053165;28;20522;-54
2022/12/09 09:40:41;;;;;;;31.80;17.50;;;2.50;99.90;;;;;;5052971;28;20874;-53
2022/12/09 09:43:16;;;;;;;25.27;14.87;;;2.40;99.90;;;;;;5053432;28;20229;-60
2022/12/09 09:45:43;;;;;;;26.07;14.83;;;2.50;99.90;;;;;;5052655;28;20467;-59
2022/12/09 09:48:15;;;;;;;25.67;14.67;;;2.50;99.90;;;;;;5053308;28;20447;-60
2022/12/09 09:50:50;;;;;;;26.30;14.67;;;2.30;99.90;;;;;;5052749;28;20448;-59
2022/12/09 09:53:20;;;;;;;25.00;14.27;;;2.30;99.90;;;;;;5052969;28;20448;-60
2022/12/09 09:55:52;;;;;;;22.70;13.50;;;2.20;99.90;;;;;;5053001;28;20471;-60
2022/12/09 09:58:25;;;;;;;26.13;14.47;;;2.20;99.90;;;;;;5053478;28;20877;-60
2022/12/09 10:00:58;;;;;;;25.50;14.87;;;2.30;99.90;;;;;;5053246;28;20432;-57
2022/12/09 10:03:35;;;;;;;32.20;15.00;;;2.40;99.90;;;;;;5052361;28;20920;-59
2022/12/09 10:06:10;;;;;;;24.83;15.67;;;2.50;99.90;;;;;;5052506;28;20883;-59
2022/12/09 10:08:54;;;;;;;27.10;15.43;;;2.60;99.90;;;;;;5052594;28;20204;-57
2022/12/09 10:11:28;;;;;;;25.20;13.67;;;2.50;99.90;;;;;;5052832;28;20452;-63
2022/12/09 10:14:02;;;;;;;22.67;13.63;;;2.50;99.90;;;;;;5051812;28;20448;-62
2022/12/09 10:16:38;;;;;;;21.90;12.77;;;2.70;99.90;;;;;;5052607;28;20525;-61
2022/12/09 10:19:11;;;;;;;25.80;13.63;;;2.70;99.90;;;;;;5052120;28;20488;-63
2022/12/09 10:21:43;;;;;;;22.00;12.83;;;2.80;99.90;;;;;;5052647;28;20283;-59
2022/12/09 10:24:21;;;;;;;23.93;13.23;;;2.90;99.90;;;;;;5053019;28;20215;-58
2022/12/09 10:26:58;;;;;;;21.67;13.07;;;2.90;99.90;;;;;;5052365;28;20229;-56
2022/12/09 10:29:38;;;;;;;26.83;13.90;;;3.00;99.90;;;;;;5050918;28;20681;-58
2022/12/09 10:32:09;;;;;;;23.63;13.37;;;3.10;99.90;;;;;;5030938;28;20214;-58
2022/12/09 10:34:35;;;;;;;18.47;11.53;;;3.10;99.90;;;;;;5032431;28;20261;-55
2022/12/09 10:37:03;;;;;;;16.60;10.23;;;3.20;99.90;;;;;;5031075;28;20242;-57
2022/12/09 10:39:30;;;;;;;17.93;9.37;;;3.10;88.40;;;;;;5032246;28;20235;-58
2022/12/09 10:44:42;;;;;;;18.07;10.30;;;3.10;86.10;;;;;;5052266;28;20209;-59
2022/12/09 10:47:28;;;;;;;16.10;10.20;;;2.80;59.60;;;;;;5051477;28;20508;-58
2022/12/09 10:49:57;;;;;;;19.23;11.77;;;2.90;91.00;;;;;;5052010;28;20532;-57
2022/12/09 10:52:28;;;;;;;17.13;10.67;;;2.90;99.90;;;;;;5051926;28;20547;-57
2022/12/09 10:54:55;;;;;;;19.00;11.50;;;2.90;99.90;;;;;;5051953;28;20210;-61
2022/12/09 10:57:24;;;;;;;23.63;13.17;;;3.00;99.90;;;;;;5051754;28;20226;-62
2022/12/09 11:00:05;;;;;;;26.33;12.17;;;3.10;99.90;;;;;;5051172;28;20237;-60
2022/12/09 11:02:33;;;;;;;17.60;10.03;;;3.20;99.90;;;;;;5051548;28;20591;-63
2022/12/09 11:05:22;;;;;;;21.77;11.30;;;3.20;99.90;;;;;;5051553;28;20206;-56
2022/12/09 11:07:51;;;;;;;21.77;12.57;;;3.20;99.90;;;;;;5051588;28;20552;-61
2022/12/09 11:10:20;;;;;;;19.00;12.00;;;3.20;99.90;;;;;;5051324;28;20207;-60
2022/12/09 11:12:51;;;;;;;18.00;11.57;;;3.30;99.90;;;;;;5051265;28;20209;-61
2022/12/09 11:15:30;;;;;;;14.63;9.60;;;3.30;99.90;;;;;;5051239;28;20615;-59
2022/12/09 11:18:00;;;;;;;17.80;9.67;;;3.20;78.10;;;;;;5039904;28;20197;-57
2022/12/09 11:20:28;;;;;;;21.47;11.27;;;3.40;75.80;;;;;;5031580;28;20223;-59
2022/12/09 11:23:03;;;;;;;19.33;11.97;;;3.50;58.90;;;;;;5038927;28;20665;-59
2022/12/09 11:25:31;;;;;;;20.20;11.13;;;3.70;59.70;;;;;;5039225;28;20252;-58
2022/12/09 11:28:00;;;;;;;21.70;12.57;;;3.80;75.00;;;;;;5050454;28;20615;-57
2022/12/09 11:30:30;;;;;;;19.07;10.87;;;3.80;72.80;;;;;;5051496;28;20208;-58
2022/12/09 11:33:07;;;;;;;18.87;11.27;;;3.90;46.40;;;;;;5050653;28;20201;-57
2022/12/09 11:35:51;;;;;;;17.70;9.77;;;4.00;20.10;;;;;;5051401;28;20218;-58
2022/12/09 11:38:36;;;;;;;21.57;11.23;;;4.00;6.50;;;;;;5050804;28;20311;-58
2022/12/09 11:42:12;;;;;;;17.07;10.30;;;4.00;2.70;;;;;;5050757;28;20265;-60
2022/12/09 11:44:20;;;;;;;15.83;10.00;;;3.90;1.00;;;;;;5042281;28;20194;-59
2022/12/09 11:46:55;;;;;;;15.60;9.73;;;3.80;1.00;;;;;;5051054;28;20324;-58
2022/12/09 11:49:22;;;;;;;14.33;9.27;;;3.80;1.00;;;;;;5050645;28;20207;-59
2022/12/09 11:52:01;;;;;;;19.07;9.73;;;3.70;1.00;;;;;;5042410;28;20204;-61
2022/12/09 11:54:35;;;;;;;16.43;10.53;;;3.70;1.00;;;;;;5051023;28;20205;-61
2022/12/09 11:57:06;;;;;;;22.43;10.63;;;3.70;8.80;;;;;;5050212;28;20627;-62
2022/12/09 11:59:38;;;;;;;19.23;11.00;;;3.60;9.90;;;;;;5042871;28;20230;-62
2022/12/09 12:02:13;;;;;;;21.30;10.80;;;3.40;1.00;;;;;;5042885;28;20194;-61
2022/12/09 12:04:48;;;;;;;18.00;10.93;;;3.40;1.80;;;;;;5050977;28;20686;-61
2022/12/09 12:07:20;;;;;;;17.47;11.13;;;3.50;6.20;;;;;;5050115;28;20743;-60
2022/12/09 12:09:53;;;;;;;17.47;11.10;;;3.50;14.80;;;;;;5051057;28;20720;-58
2022/12/09 12:12:28;;;;;;;16.13;10.63;;;3.40;16.30;;;;;;5050335;28;20199;-58
2022/12/09 12:15:01;;;;;;;16.97;11.03;;;3.40;16.00;;;;;;5050864;28;20199;-59
2022/12/09 12:17:35;;;;;;;17.93;11.63;;;3.20;26.40;;;;;;5049868;28;20291;-58
2022/12/09 12:20:03;;;;;;;23.83;11.83;;;3.20;39.80;;;;;;5051301;28;20235;-57
2022/12/09 12:22:51;;;;;;;17.30;11.47;;;3.00;48.40;;;;;;5050771;28;20213;-58
2022/12/09 12:25:32;;;;;;;23.27;11.70;;;3.10;57.40;;;;;;5050534;28;20450;-58
2022/12/09 12:28:13;;;;;;;19.00;11.77;;;3.20;58.60;;;;;;5050656;28;20210;-60
2022/12/09 12:30:46;;;;;;;15.70;11.23;;;3.10;69.10;;;;;;5050294;28;20249;-58
2022/12/09 12:33:33;;;;;;;22.07;10.83;;;3.20;61.20;;;;;;5049913;28;20908;-63
2022/12/09 12:36:07;;;;;;;20.73;12.53;;;3.20;49.40;;;;;;5050043;28;20226;-56
2022/12/09 12:38:49;;;;;;;23.10;12.67;;;3.00;58.20;;;;;;5042151;28;20240;-61
2022/12/09 12:41:28;;;;;;;25.57;13.57;;;2.90;82.50;;;;;;5045547;28;20488;-61
2022/12/09 12:46:58;;;;;;;22.83;12.50;;;3.10;73.90;;;;;;5049292;28;20234;-57
2022/12/09 12:49:42;;;;;;;23.77;13.47;;;3.10;64.50;;;;;;5043203;28;20196;-56
2022/12/09 12:52:22;;;;;;;23.73;12.93;;;3.20;81.60;;;;;;5043001;28;20194;-58
2022/12/09 12:54:55;;;;;;;19.77;12.67;;;3.20;93.20;;;;;;5040243;28;20211;-63
2022/12/09 12:57:30;;;;;;;24.83;12.90;;;3.10;64.00;;;;;;5038119;28;20219;-60